sensor_id;sensor_type;location;lat;lon;timestamp;P1;durP1;ratioP1;P2;durP2;ratioP2
41514;SDS011;27247;48.020;16.720;2023-05-10T00:00:29;5.70;;;2.97;;
41514;SDS011;27247;48.020;16.720;2023-05-10T00:04:39;11.07;;;4.00;;
41514;SDS011;27247;48.020;16.720;2023-05-10T00:08:49;4.95;;;2.35;;
41514;SDS011;27247;48.020;16.720;2023-05-10T00:13:00;6.43;;;3.15;;
41514;SDS011;27247;48.020;16.720;2023-05-10T00:17:10;4.83;;;2.70;;
41514;SDS011;27247;48.020;16.720;2023-05-10T00:21:20;4.45;;;2.80;;
41514;SDS011;27247;48.020;16.720;2023-05-10T00:25:31;6.53;;;2.97;;
41514;SDS011;27247;48.020;16.720;2023-05-10T00:29:41;4.90;;;3.00;;
41514;SDS011;27247;48.020;16.720;2023-05-10T00:33:51;5.83;;;2.83;;
41514;SDS011;27247;48.020;16.720;2023-05-10T00:38:02;5.93;;;3.00;;
41514;SDS011;27247;48.020;16.720;2023-05-10T00:42:12;3.67;;;2.70;;
41514;SDS011;27247;48.020;16.720;2023-05-10T00:46:22;5.95;;;3.13;;
41514;SDS011;27247;48.020;16.720;2023-05-10T00:50:33;3.95;;;2.72;;
41514;SDS011;27247;48.020;16.720;2023-05-10T00:54:44;4.93;;;3.13;;
41514;SDS011;27247;48.020;16.720;2023-05-10T00:58:54;4.88;;;2.90;;
41514;SDS011;27247;48.020;16.720;2023-05-10T01:03:05;6.15;;;3.60;;
41514;SDS011;27247;48.020;16.720;2023-05-10T01:07:16;5.57;;;3.20;;
41514;SDS011;27247;48.020;16.720;2023-05-10T01:11:26;4.32;;;2.55;;
41514;SDS011;27247;48.020;16.720;2023-05-10T01:15:37;5.10;;;3.05;;
41514;SDS011;27247;48.020;16.720;2023-05-10T01:19:48;6.35;;;3.13;;
41514;SDS011;27247;48.020;16.720;2023-05-10T01:28:33;4.93;;;3.10;;
41514;SDS011;27247;48.020;16.720;2023-05-10T01:33:26;7.10;;;3.47;;
41514;SDS011;27247;48.020;16.720;2023-05-10T01:37:47;4.43;;;2.72;;
41514;SDS011;27247;48.020;16.720;2023-05-10T01:42:17;6.97;;;3.53;;
41514;SDS011;27247;48.020;16.720;2023-05-10T01:46:40;4.65;;;3.45;;
41514;SDS011;27247;48.020;16.720;2023-05-10T01:50:50;4.38;;;3.30;;
41514;SDS011;27247;48.020;16.720;2023-05-10T01:55:04;4.60;;;3.45;;
41514;SDS011;27247;48.020;16.720;2023-05-10T01:59:16;5.55;;;3.03;;
41514;SDS011;27247;48.020;16.720;2023-05-10T02:03:29;4.97;;;3.58;;
41514;SDS011;27247;48.020;16.720;2023-05-10T02:07:41;6.95;;;3.90;;
41514;SDS011;27247;48.020;16.720;2023-05-10T02:11:53;6.18;;;3.95;;
41514;SDS011;27247;48.020;16.720;2023-05-10T02:16:05;6.93;;;3.53;;
41514;SDS011;27247;48.020;16.720;2023-05-10T02:20:17;7.25;;;4.43;;
41514;SDS011;27247;48.020;16.720;2023-05-10T02:24:29;5.82;;;3.90;;
41514;SDS011;27247;48.020;16.720;2023-05-10T02:28:40;6.40;;;4.35;;
41514;SDS011;27247;48.020;16.720;2023-05-10T02:32:52;6.65;;;4.18;;
41514;SDS011;27247;48.020;16.720;2023-05-10T02:37:03;7.25;;;4.25;;
41514;SDS011;27247;48.020;16.720;2023-05-10T02:41:16;8.52;;;4.82;;
41514;SDS011;27247;48.020;16.720;2023-05-10T02:45:27;7.45;;;4.40;;
41514;SDS011;27247;48.020;16.720;2023-05-10T02:49:40;7.07;;;4.63;;
41514;SDS011;27247;48.020;16.720;2023-05-10T02:53:50;6.88;;;4.82;;
41514;SDS011;27247;48.020;16.720;2023-05-10T02:58:03;7.82;;;4.75;;
41514;SDS011;27247;48.020;16.720;2023-05-10T03:02:14;8.73;;;4.90;;
41514;SDS011;27247;48.020;16.720;2023-05-10T03:06:25;6.83;;;5.23;;
41514;SDS011;27247;48.020;16.720;2023-05-10T03:10:38;8.90;;;5.20;;
41514;SDS011;27247;48.020;16.720;2023-05-10T03:19:30;8.27;;;5.53;;
41514;SDS011;27247;48.020;16.720;2023-05-10T03:23:53;8.23;;;5.47;;
41514;SDS011;27247;48.020;16.720;2023-05-10T03:28:09;10.98;;;5.55;;
41514;SDS011;27247;48.020;16.720;2023-05-10T03:32:20;8.25;;;5.95;;
41514;SDS011;27247;48.020;16.720;2023-05-10T03:36:30;10.07;;;5.40;;
41514;SDS011;27247;48.020;16.720;2023-05-10T03:40:40;7.23;;;5.20;;
41514;SDS011;27247;48.020;16.720;2023-05-10T03:44:51;8.65;;;6.00;;
41514;SDS011;27247;48.020;16.720;2023-05-10T03:49:01;10.43;;;6.03;;
41514;SDS011;27247;48.020;16.720;2023-05-10T03:53:11;9.15;;;5.53;;
41514;SDS011;27247;48.020;16.720;2023-05-10T03:57:22;9.93;;;5.53;;
41514;SDS011;27247;48.020;16.720;2023-05-10T04:01:33;14.47;;;6.13;;
41514;SDS011;27247;48.020;16.720;2023-05-10T04:05:44;11.00;;;6.47;;
41514;SDS011;27247;48.020;16.720;2023-05-10T04:09:54;12.52;;;7.45;;
41514;SDS011;27247;48.020;16.720;2023-05-10T04:14:04;12.18;;;7.65;;
41514;SDS011;27247;48.020;16.720;2023-05-10T04:18:15;11.90;;;7.97;;
41514;SDS011;27247;48.020;16.720;2023-05-10T04:22:25;16.87;;;7.37;;
41514;SDS011;27247;48.020;16.720;2023-05-10T04:26:35;14.38;;;7.95;;
41514;SDS011;27247;48.020;16.720;2023-05-10T04:30:46;14.38;;;7.57;;
41514;SDS011;27247;48.020;16.720;2023-05-10T04:34:56;13.30;;;7.53;;
41514;SDS011;27247;48.020;16.720;2023-05-10T04:39:06;12.90;;;7.55;;
41514;SDS011;27247;48.020;16.720;2023-05-10T04:43:17;12.10;;;6.90;;
41514;SDS011;27247;48.020;16.720;2023-05-10T04:47:27;15.87;;;8.20;;
41514;SDS011;27247;48.020;16.720;2023-05-10T04:51:37;13.17;;;7.20;;
41514;SDS011;27247;48.020;16.720;2023-05-10T04:55:48;13.05;;;7.32;;
41514;SDS011;27247;48.020;16.720;2023-05-10T04:59:59;12.95;;;8.07;;
41514;SDS011;27247;48.020;16.720;2023-05-10T05:04:10;9.98;;;6.97;;
41514;SDS011;27247;48.020;16.720;2023-05-10T05:08:20;12.32;;;7.82;;
41514;SDS011;27247;48.020;16.720;2023-05-10T05:12:30;11.32;;;7.53;;
41514;SDS011;27247;48.020;16.720;2023-05-10T05:16:40;14.00;;;8.02;;
41514;SDS011;27247;48.020;16.720;2023-05-10T05:20:51;13.82;;;8.20;;
41514;SDS011;27247;48.020;16.720;2023-05-10T05:25:01;11.13;;;7.47;;
41514;SDS011;27247;48.020;16.720;2023-05-10T05:29:13;11.10;;;7.68;;
41514;SDS011;27247;48.020;16.720;2023-05-10T05:33:23;13.82;;;7.28;;
41514;SDS011;27247;48.020;16.720;2023-05-10T05:37:34;23.70;;;7.90;;
41514;SDS011;27247;48.020;16.720;2023-05-10T05:41:45;16.95;;;8.85;;
41514;SDS011;27247;48.020;16.720;2023-05-10T05:45:56;15.35;;;8.60;;
41514;SDS011;27247;48.020;16.720;2023-05-10T05:50:07;12.57;;;8.18;;
41514;SDS011;27247;48.020;16.720;2023-05-10T05:54:18;13.93;;;8.82;;
41514;SDS011;27247;48.020;16.720;2023-05-10T05:58:29;16.25;;;9.77;;
41514;SDS011;27247;48.020;16.720;2023-05-10T06:02:39;16.17;;;9.57;;
41514;SDS011;27247;48.020;16.720;2023-05-10T06:06:49;16.67;;;9.32;;
41514;SDS011;27247;48.020;16.720;2023-05-10T06:11:00;14.30;;;8.83;;
41514;SDS011;27247;48.020;16.720;2023-05-10T06:15:11;12.15;;;8.23;;
41514;SDS011;27247;48.020;16.720;2023-05-10T06:19:21;11.68;;;8.15;;
41514;SDS011;27247;48.020;16.720;2023-05-10T06:23:32;13.48;;;8.35;;
41514;SDS011;27247;48.020;16.720;2023-05-10T06:27:42;17.25;;;8.05;;
41514;SDS011;27247;48.020;16.720;2023-05-10T06:31:52;13.60;;;8.52;;
41514;SDS011;27247;48.020;16.720;2023-05-10T06:36:04;12.63;;;8.18;;
41514;SDS011;27247;48.020;16.720;2023-05-10T06:40:14;12.55;;;8.60;;
41514;SDS011;27247;48.020;16.720;2023-05-10T06:44:25;14.10;;;8.18;;
41514;SDS011;27247;48.020;16.720;2023-05-10T06:48:35;13.93;;;8.95;;
41514;SDS011;27247;48.020;16.720;2023-05-10T06:52:46;14.10;;;8.82;;
41514;SDS011;27247;48.020;16.720;2023-05-10T06:56:56;13.27;;;8.73;;
41514;SDS011;27247;48.020;16.720;2023-05-10T07:01:07;13.23;;;8.82;;
41514;SDS011;27247;48.020;16.720;2023-05-10T07:05:17;17.17;;;8.85;;
41514;SDS011;27247;48.020;16.720;2023-05-10T07:09:28;11.77;;;9.05;;
41514;SDS011;27247;48.020;16.720;2023-05-10T07:13:38;17.00;;;9.23;;
41514;SDS011;27247;48.020;16.720;2023-05-10T07:17:51;17.15;;;9.63;;
41514;SDS011;27247;48.020;16.720;2023-05-10T07:22:01;11.00;;;8.38;;
41514;SDS011;27247;48.020;16.720;2023-05-10T07:26:12;27.30;;;9.73;;
41514;SDS011;27247;48.020;16.720;2023-05-10T07:30:23;12.70;;;8.98;;
41514;SDS011;27247;48.020;16.720;2023-05-10T07:34:34;18.00;;;8.77;;
41514;SDS011;27247;48.020;16.720;2023-05-10T07:38:44;11.57;;;7.93;;
41514;SDS011;27247;48.020;16.720;2023-05-10T07:42:55;15.75;;;7.65;;
41514;SDS011;27247;48.020;16.720;2023-05-10T07:47:05;12.68;;;8.48;;
41514;SDS011;27247;48.020;16.720;2023-05-10T07:51:15;12.03;;;7.90;;
41514;SDS011;27247;48.020;16.720;2023-05-10T07:55:26;11.77;;;6.95;;
41514;SDS011;27247;48.020;16.720;2023-05-10T07:59:36;8.63;;;5.93;;
41514;SDS011;27247;48.020;16.720;2023-05-10T08:03:47;9.07;;;4.85;;
41514;SDS011;27247;48.020;16.720;2023-05-10T08:07:57;9.07;;;5.32;;
41514;SDS011;27247;48.020;16.720;2023-05-10T08:12:09;7.03;;;5.15;;
41514;SDS011;27247;48.020;16.720;2023-05-10T08:16:20;7.18;;;5.05;;
41514;SDS011;27247;48.020;16.720;2023-05-10T08:20:30;10.85;;;5.00;;
41514;SDS011;27247;48.020;16.720;2023-05-10T08:24:40;8.60;;;4.83;;
41514;SDS011;27247;48.020;16.720;2023-05-10T08:28:51;5.95;;;3.85;;
41514;SDS011;27247;48.020;16.720;2023-05-10T08:33:02;7.07;;;4.50;;
41514;SDS011;27247;48.020;16.720;2023-05-10T08:37:12;5.30;;;4.07;;
41514;SDS011;27247;48.020;16.720;2023-05-10T08:41:23;6.30;;;4.10;;
41514;SDS011;27247;48.020;16.720;2023-05-10T08:45:38;5.32;;;4.25;;
41514;SDS011;27247;48.020;16.720;2023-05-10T08:49:50;12.18;;;4.82;;
41514;SDS011;27247;48.020;16.720;2023-05-10T08:54:02;6.43;;;3.13;;
41514;SDS011;27247;48.020;16.720;2023-05-10T08:58:13;4.15;;;3.55;;
41514;SDS011;27247;48.020;16.720;2023-05-10T09:02:24;6.70;;;3.47;;
41514;SDS011;27247;48.020;16.720;2023-05-10T09:06:35;6.53;;;4.13;;
41514;SDS011;27247;48.020;16.720;2023-05-10T09:10:46;3.80;;;3.30;;
41514;SDS011;27247;48.020;16.720;2023-05-10T09:14:59;5.07;;;3.53;;
41514;SDS011;27247;48.020;16.720;2023-05-10T09:19:10;5.63;;;3.55;;
41514;SDS011;27247;48.020;16.720;2023-05-10T09:23:20;5.47;;;4.05;;
41514;SDS011;27247;48.020;16.720;2023-05-10T09:27:31;7.30;;;3.57;;
41514;SDS011;27247;48.020;16.720;2023-05-10T09:31:45;3.80;;;2.88;;
41514;SDS011;27247;48.020;16.720;2023-05-10T09:36:07;6.53;;;3.80;;
41514;SDS011;27247;48.020;16.720;2023-05-10T09:40:19;5.65;;;3.05;;
41514;SDS011;27247;48.020;16.720;2023-05-10T09:44:34;4.63;;;3.42;;
41514;SDS011;27247;48.020;16.720;2023-05-10T09:48:46;8.80;;;3.97;;
41514;SDS011;27247;48.020;16.720;2023-05-10T09:52:59;8.65;;;3.20;;
41514;SDS011;27247;48.020;16.720;2023-05-10T09:57:18;4.57;;;3.85;;
41514;SDS011;27247;48.020;16.720;2023-05-10T10:01:31;5.03;;;3.75;;
41514;SDS011;27247;48.020;16.720;2023-05-10T10:05:43;5.45;;;3.83;;
41514;SDS011;27247;48.020;16.720;2023-05-10T10:09:55;14.52;;;3.90;;
41514;SDS011;27247;48.020;16.720;2023-05-10T10:14:06;5.90;;;3.53;;
41514;SDS011;27247;48.020;16.720;2023-05-10T10:18:16;4.30;;;2.90;;
41514;SDS011;27247;48.020;16.720;2023-05-10T10:22:27;4.97;;;3.20;;
41514;SDS011;27247;48.020;16.720;2023-05-10T10:26:38;8.63;;;2.97;;
41514;SDS011;27247;48.020;16.720;2023-05-10T10:30:50;7.00;;;2.92;;
41514;SDS011;27247;48.020;16.720;2023-05-10T10:35:05;4.30;;;3.10;;
41514;SDS011;27247;48.020;16.720;2023-05-10T10:39:17;6.75;;;2.55;;
41514;SDS011;27247;48.020;16.720;2023-05-10T10:43:28;4.90;;;2.30;;
41514;SDS011;27247;48.020;16.720;2023-05-10T10:47:40;3.80;;;2.92;;
41514;SDS011;27247;48.020;16.720;2023-05-10T10:56:23;4.55;;;3.00;;
41514;SDS011;27247;48.020;16.720;2023-05-10T11:00:37;3.37;;;2.30;;
41514;SDS011;27247;48.020;16.720;2023-05-10T11:04:50;2.67;;;2.20;;
41514;SDS011;27247;48.020;16.720;2023-05-10T11:09:07;2.92;;;2.47;;
41514;SDS011;27247;48.020;16.720;2023-05-10T11:17:41;2.70;;;1.90;;
41514;SDS011;27247;48.020;16.720;2023-05-10T11:26:15;3.88;;;2.38;;
41514;SDS011;27247;48.020;16.720;2023-05-10T11:30:26;4.40;;;2.10;;
41514;SDS011;27247;48.020;16.720;2023-05-10T11:34:36;4.75;;;2.05;;
41514;SDS011;27247;48.020;16.720;2023-05-10T11:38:47;2.88;;;2.10;;
41514;SDS011;27247;48.020;16.720;2023-05-10T11:42:58;2.40;;;1.67;;
41514;SDS011;27247;48.020;16.720;2023-05-10T11:47:09;4.75;;;2.13;;
41514;SDS011;27247;48.020;16.720;2023-05-10T11:51:20;4.10;;;2.00;;
41514;SDS011;27247;48.020;16.720;2023-05-10T11:55:33;3.72;;;2.72;;
41514;SDS011;27247;48.020;16.720;2023-05-10T11:59:43;3.67;;;2.20;;
41514;SDS011;27247;48.020;16.720;2023-05-10T12:03:55;4.53;;;2.50;;
41514;SDS011;27247;48.020;16.720;2023-05-10T12:08:10;5.82;;;2.60;;
41514;SDS011;27247;48.020;16.720;2023-05-10T12:12:24;4.05;;;2.88;;
41514;SDS011;27247;48.020;16.720;2023-05-10T12:16:35;13.40;;;2.85;;
41514;SDS011;27247;48.020;16.720;2023-05-10T12:20:45;4.82;;;3.10;;
41514;SDS011;27247;48.020;16.720;2023-05-10T12:24:56;4.90;;;2.80;;
41514;SDS011;27247;48.020;16.720;2023-05-10T12:29:15;4.95;;;3.25;;
41514;SDS011;27247;48.020;16.720;2023-05-10T12:33:34;5.78;;;2.67;;
41514;SDS011;27247;48.020;16.720;2023-05-10T12:37:46;4.30;;;2.65;;
41514;SDS011;27247;48.020;16.720;2023-05-10T12:41:56;4.18;;;2.65;;
41514;SDS011;27247;48.020;16.720;2023-05-10T12:46:10;4.67;;;2.37;;
41514;SDS011;27247;48.020;16.720;2023-05-10T12:50:25;2.83;;;2.47;;
41514;SDS011;27247;48.020;16.720;2023-05-10T12:54:35;7.75;;;2.45;;
41514;SDS011;27247;48.020;16.720;2023-05-10T12:58:45;3.08;;;2.45;;
41514;SDS011;27247;48.020;16.720;2023-05-10T13:02:58;3.30;;;2.05;;
41514;SDS011;27247;48.020;16.720;2023-05-10T13:07:08;3.92;;;2.15;;
41514;SDS011;27247;48.020;16.720;2023-05-10T13:11:19;6.68;;;2.15;;
41514;SDS011;27247;48.020;16.720;2023-05-10T13:15:30;4.32;;;2.25;;
41514;SDS011;27247;48.020;16.720;2023-05-10T13:23:58;5.57;;;2.17;;
41514;SDS011;27247;48.020;16.720;2023-05-10T13:28:09;4.78;;;2.13;;
41514;SDS011;27247;48.020;16.720;2023-05-10T13:32:20;4.33;;;2.20;;
41514;SDS011;27247;48.020;16.720;2023-05-10T13:36:30;7.78;;;1.65;;
41514;SDS011;27247;48.020;16.720;2023-05-10T13:40:41;3.55;;;1.67;;
41514;SDS011;27247;48.020;16.720;2023-05-10T13:44:51;5.32;;;1.50;;
41514;SDS011;27247;48.020;16.720;2023-05-10T13:49:02;2.35;;;1.88;;
41514;SDS011;27247;48.020;16.720;2023-05-10T13:53:12;2.20;;;1.77;;
41514;SDS011;27247;48.020;16.720;2023-05-10T13:57:23;3.00;;;1.70;;
41514;SDS011;27247;48.020;16.720;2023-05-10T14:01:34;4.03;;;1.70;;
41514;SDS011;27247;48.020;16.720;2023-05-10T14:05:44;2.83;;;2.00;;
41514;SDS011;27247;48.020;16.720;2023-05-10T14:09:55;6.20;;;1.90;;
41514;SDS011;27247;48.020;16.720;2023-05-10T14:14:05;2.17;;;1.50;;
41514;SDS011;27247;48.020;16.720;2023-05-10T14:18:15;3.63;;;2.13;;
41514;SDS011;27247;48.020;16.720;2023-05-10T14:22:26;5.90;;;1.83;;
41514;SDS011;27247;48.020;16.720;2023-05-10T14:26:36;2.07;;;1.60;;
41514;SDS011;27247;48.020;16.720;2023-05-10T14:30:46;4.00;;;1.63;;
41514;SDS011;27247;48.020;16.720;2023-05-10T14:34:58;2.88;;;1.70;;
41514;SDS011;27247;48.020;16.720;2023-05-10T14:39:09;3.53;;;1.63;;
41514;SDS011;27247;48.020;16.720;2023-05-10T14:43:22;3.63;;;2.22;;
41514;SDS011;27247;48.020;16.720;2023-05-10T14:47:32;5.60;;;1.60;;
41514;SDS011;27247;48.020;16.720;2023-05-10T14:51:43;3.37;;;2.10;;
41514;SDS011;27247;48.020;16.720;2023-05-10T14:55:54;4.25;;;1.65;;
41514;SDS011;27247;48.020;16.720;2023-05-10T15:00:05;3.67;;;1.70;;
41514;SDS011;27247;48.020;16.720;2023-05-10T15:04:16;8.88;;;2.28;;
41514;SDS011;27247;48.020;16.720;2023-05-10T15:08:26;3.58;;;1.60;;
41514;SDS011;27247;48.020;16.720;2023-05-10T15:12:37;4.35;;;2.05;;
41514;SDS011;27247;48.020;16.720;2023-05-10T15:16:48;3.30;;;2.17;;
41514;SDS011;27247;48.020;16.720;2023-05-10T15:20:58;2.13;;;1.63;;
41514;SDS011;27247;48.020;16.720;2023-05-10T15:25:08;4.07;;;2.10;;
41514;SDS011;27247;48.020;16.720;2023-05-10T15:29:19;8.30;;;2.20;;
41514;SDS011;27247;48.020;16.720;2023-05-10T15:33:30;8.10;;;2.13;;
41514;SDS011;27247;48.020;16.720;2023-05-10T15:37:41;3.30;;;1.70;;
41514;SDS011;27247;48.020;16.720;2023-05-10T15:41:51;4.17;;;1.93;;
41514;SDS011;27247;48.020;16.720;2023-05-10T15:46:01;3.00;;;1.77;;
41514;SDS011;27247;48.020;16.720;2023-05-10T15:50:12;6.65;;;1.77;;
41514;SDS011;27247;48.020;16.720;2023-05-10T15:54:24;3.15;;;1.80;;
41514;SDS011;27247;48.020;16.720;2023-05-10T15:58:37;4.07;;;2.05;;
41514;SDS011;27247;48.020;16.720;2023-05-10T16:02:48;5.18;;;2.10;;
41514;SDS011;27247;48.020;16.720;2023-05-10T16:07:00;8.95;;;2.33;;
41514;SDS011;27247;48.020;16.720;2023-05-10T16:11:11;5.65;;;2.35;;
41514;SDS011;27247;48.020;16.720;2023-05-10T16:15:21;4.77;;;2.50;;
41514;SDS011;27247;48.020;16.720;2023-05-10T16:19:32;3.20;;;2.20;;
41514;SDS011;27247;48.020;16.720;2023-05-10T16:23:42;3.97;;;2.35;;
41514;SDS011;27247;48.020;16.720;2023-05-10T16:27:55;5.00;;;1.88;;
41514;SDS011;27247;48.020;16.720;2023-05-10T16:32:05;5.37;;;1.90;;
41514;SDS011;27247;48.020;16.720;2023-05-10T16:36:16;8.20;;;2.30;;
41514;SDS011;27247;48.020;16.720;2023-05-10T16:40:26;5.43;;;2.10;;
41514;SDS011;27247;48.020;16.720;2023-05-10T16:44:36;3.83;;;1.80;;
41514;SDS011;27247;48.020;16.720;2023-05-10T16:48:47;4.03;;;1.73;;
41514;SDS011;27247;48.020;16.720;2023-05-10T16:52:57;4.20;;;2.03;;
41514;SDS011;27247;48.020;16.720;2023-05-10T16:57:07;3.38;;;2.10;;
41514;SDS011;27247;48.020;16.720;2023-05-10T17:01:17;5.83;;;2.10;;
41514;SDS011;27247;48.020;16.720;2023-05-10T17:05:28;3.47;;;1.77;;
41514;SDS011;27247;48.020;16.720;2023-05-10T17:09:38;4.33;;;2.17;;
41514;SDS011;27247;48.020;16.720;2023-05-10T17:13:50;6.65;;;1.92;;
41514;SDS011;27247;48.020;16.720;2023-05-10T17:18:01;3.95;;;2.45;;
41514;SDS011;27247;48.020;16.720;2023-05-10T17:22:12;5.30;;;2.17;;
41514;SDS011;27247;48.020;16.720;2023-05-10T17:26:23;6.15;;;2.30;;
41514;SDS011;27247;48.020;16.720;2023-05-10T17:30:33;4.85;;;1.98;;
41514;SDS011;27247;48.020;16.720;2023-05-10T17:34:44;3.97;;;1.70;;
41514;SDS011;27247;48.020;16.720;2023-05-10T17:38:54;3.17;;;2.10;;
41514;SDS011;27247;48.020;16.720;2023-05-10T17:43:04;2.50;;;1.63;;
41514;SDS011;27247;48.020;16.720;2023-05-10T17:47:15;2.87;;;1.87;;
41514;SDS011;27247;48.020;16.720;2023-05-10T17:51:26;4.65;;;1.90;;
41514;SDS011;27247;48.020;16.720;2023-05-10T17:55:41;2.70;;;1.60;;
41514;SDS011;27247;48.020;16.720;2023-05-10T17:59:51;3.97;;;2.45;;
41514;SDS011;27247;48.020;16.720;2023-05-10T18:04:02;6.40;;;2.00;;
41514;SDS011;27247;48.020;16.720;2023-05-10T18:08:13;5.47;;;2.33;;
41514;SDS011;27247;48.020;16.720;2023-05-10T18:12:24;9.40;;;2.40;;
41514;SDS011;27247;48.020;16.720;2023-05-10T18:16:34;4.65;;;2.03;;
41514;SDS011;27247;48.020;16.720;2023-05-10T18:20:45;3.40;;;2.30;;
41514;SDS011;27247;48.020;16.720;2023-05-10T18:24:55;3.05;;;1.85;;
41514;SDS011;27247;48.020;16.720;2023-05-10T18:29:06;3.87;;;2.10;;
41514;SDS011;27247;48.020;16.720;2023-05-10T18:33:16;2.60;;;2.25;;
41514;SDS011;27247;48.020;16.720;2023-05-10T18:37:26;3.17;;;2.03;;
41514;SDS011;27247;48.020;16.720;2023-05-10T18:41:37;4.18;;;2.10;;
41514;SDS011;27247;48.020;16.720;2023-05-10T18:45:48;3.67;;;2.50;;
41514;SDS011;27247;48.020;16.720;2023-05-10T18:50:01;3.35;;;2.22;;
41514;SDS011;27247;48.020;16.720;2023-05-10T18:54:14;3.38;;;2.35;;
41514;SDS011;27247;48.020;16.720;2023-05-10T18:58:27;3.00;;;2.42;;
41514;SDS011;27247;48.020;16.720;2023-05-10T19:02:38;4.88;;;2.80;;
41514;SDS011;27247;48.020;16.720;2023-05-10T19:06:49;3.22;;;2.20;;
41514;SDS011;27247;48.020;16.720;2023-05-10T19:10:59;4.65;;;2.30;;
41514;SDS011;27247;48.020;16.720;2023-05-10T19:15:10;2.60;;;2.00;;
41514;SDS011;27247;48.020;16.720;2023-05-10T19:19:21;4.63;;;2.85;;
41514;SDS011;27247;48.020;16.720;2023-05-10T19:23:31;4.70;;;2.17;;
41514;SDS011;27247;48.020;16.720;2023-05-10T19:27:43;3.63;;;2.88;;
41514;SDS011;27247;48.020;16.720;2023-05-10T19:31:54;3.30;;;2.08;;
41514;SDS011;27247;48.020;16.720;2023-05-10T19:36:04;6.85;;;2.90;;
41514;SDS011;27247;48.020;16.720;2023-05-10T19:40:15;4.63;;;2.75;;
41514;SDS011;27247;48.020;16.720;2023-05-10T19:44:26;4.85;;;2.50;;
41514;SDS011;27247;48.020;16.720;2023-05-10T19:48:36;4.47;;;2.65;;
41514;SDS011;27247;48.020;16.720;2023-05-10T19:52:47;5.65;;;2.53;;
41514;SDS011;27247;48.020;16.720;2023-05-10T19:56:58;3.03;;;2.30;;
41514;SDS011;27247;48.020;16.720;2023-05-10T20:01:08;3.23;;;2.40;;
41514;SDS011;27247;48.020;16.720;2023-05-10T20:05:19;4.63;;;3.00;;
41514;SDS011;27247;48.020;16.720;2023-05-10T20:09:30;4.90;;;3.42;;
41514;SDS011;27247;48.020;16.720;2023-05-10T20:13:40;6.10;;;3.35;;
41514;SDS011;27247;48.020;16.720;2023-05-10T20:17:50;12.93;;;8.38;;
41514;SDS011;27247;48.020;16.720;2023-05-10T20:22:04;6.93;;;4.13;;
41514;SDS011;27247;48.020;16.720;2023-05-10T20:26:18;3.97;;;2.85;;
41514;SDS011;27247;48.020;16.720;2023-05-10T20:30:28;4.03;;;2.83;;
41514;SDS011;27247;48.020;16.720;2023-05-10T20:34:39;5.20;;;3.35;;
41514;SDS011;27247;48.020;16.720;2023-05-10T20:38:50;5.57;;;3.30;;
41514;SDS011;27247;48.020;16.720;2023-05-10T20:43:00;4.47;;;3.45;;
41514;SDS011;27247;48.020;16.720;2023-05-10T20:47:10;12.25;;;4.68;;
41514;SDS011;27247;48.020;16.720;2023-05-10T20:51:22;6.15;;;3.30;;
41514;SDS011;27247;48.020;16.720;2023-05-10T20:55:33;4.88;;;3.50;;
41514;SDS011;27247;48.020;16.720;2023-05-10T20:59:43;4.97;;;3.10;;
41514;SDS011;27247;48.020;16.720;2023-05-10T21:03:53;6.13;;;3.10;;
41514;SDS011;27247;48.020;16.720;2023-05-10T21:08:04;8.67;;;3.93;;
41514;SDS011;27247;48.020;16.720;2023-05-10T21:12:15;7.82;;;4.03;;
41514;SDS011;27247;48.020;16.720;2023-05-10T21:16:25;7.47;;;3.40;;
41514;SDS011;27247;48.020;16.720;2023-05-10T21:20:41;7.30;;;4.03;;
41514;SDS011;27247;48.020;16.720;2023-05-10T21:24:52;5.85;;;4.25;;
41514;SDS011;27247;48.020;16.720;2023-05-10T21:29:02;10.70;;;4.40;;
41514;SDS011;27247;48.020;16.720;2023-05-10T21:33:13;5.20;;;3.80;;
41514;SDS011;27247;48.020;16.720;2023-05-10T21:37:24;8.37;;;3.97;;
41514;SDS011;27247;48.020;16.720;2023-05-10T21:41:34;6.30;;;3.70;;
41514;SDS011;27247;48.020;16.720;2023-05-10T21:45:44;5.50;;;3.70;;
41514;SDS011;27247;48.020;16.720;2023-05-10T21:49:55;4.55;;;3.42;;
41514;SDS011;27247;48.020;16.720;2023-05-10T21:54:05;7.40;;;3.72;;
41514;SDS011;27247;48.020;16.720;2023-05-10T21:58:15;4.22;;;3.47;;
41514;SDS011;27247;48.020;16.720;2023-05-10T22:02:26;10.77;;;3.83;;
41514;SDS011;27247;48.020;16.720;2023-05-10T22:06:40;7.28;;;3.63;;
41514;SDS011;27247;48.020;16.720;2023-05-10T22:10:51;5.82;;;3.47;;
41514;SDS011;27247;48.020;16.720;2023-05-10T22:15:01;4.45;;;3.63;;
41514;SDS011;27247;48.020;16.720;2023-05-10T22:19:12;7.95;;;3.65;;
41514;SDS011;27247;48.020;16.720;2023-05-10T22:23:22;6.75;;;3.13;;
41514;SDS011;27247;48.020;16.720;2023-05-10T22:27:32;5.57;;;3.53;;
41514;SDS011;27247;48.020;16.720;2023-05-10T22:31:43;6.57;;;3.50;;
41514;SDS011;27247;48.020;16.720;2023-05-10T22:35:54;6.57;;;3.28;;
41514;SDS011;27247;48.020;16.720;2023-05-10T22:40:05;4.97;;;3.03;;
41514;SDS011;27247;48.020;16.720;2023-05-10T22:44:16;6.68;;;3.13;;
41514;SDS011;27247;48.020;16.720;2023-05-10T22:48:27;6.47;;;3.10;;
41514;SDS011;27247;48.020;16.720;2023-05-10T22:52:37;3.22;;;2.92;;
41514;SDS011;27247;48.020;16.720;2023-05-10T22:56:50;4.88;;;2.97;;
41514;SDS011;27247;48.020;16.720;2023-05-10T23:01:01;5.43;;;2.90;;
41514;SDS011;27247;48.020;16.720;2023-05-10T23:05:11;9.48;;;2.88;;
41514;SDS011;27247;48.020;16.720;2023-05-10T23:09:22;3.92;;;2.92;;
41514;SDS011;27247;48.020;16.720;2023-05-10T23:13:32;4.97;;;2.83;;
41514;SDS011;27247;48.020;16.720;2023-05-10T23:17:42;3.83;;;3.38;;
41514;SDS011;27247;48.020;16.720;2023-05-10T23:21:53;5.20;;;3.20;;
41514;SDS011;27247;48.020;16.720;2023-05-10T23:26:03;5.22;;;2.90;;
41514;SDS011;27247;48.020;16.720;2023-05-10T23:30:15;5.95;;;3.15;;
41514;SDS011;27247;48.020;16.720;2023-05-10T23:34:25;6.18;;;3.70;;
41514;SDS011;27247;48.020;16.720;2023-05-10T23:38:36;4.53;;;2.93;;
41514;SDS011;27247;48.020;16.720;2023-05-10T23:42:48;5.22;;;3.47;;
41514;SDS011;27247;48.020;16.720;2023-05-10T23:46:58;6.25;;;2.88;;
41514;SDS011;27247;48.020;16.720;2023-05-10T23:51:08;4.30;;;2.85;;
41514;SDS011;27247;48.020;16.720;2023-05-10T23:55:19;4.53;;;3.10;;
41514;SDS011;27247;48.020;16.720;2023-05-10T23:59:29;3.67;;;2.92;;
